createdAt,value
2023-12-14T00:01:26.029Z,19.97
2023-12-14T00:03:54.567Z,17.03
2023-12-14T00:06:23.171Z,16.60
2023-12-14T00:08:53.153Z,18.13
2023-12-14T00:11:21.662Z,14.73
2023-12-14T00:13:50.191Z,15.70
2023-12-14T00:16:18.738Z,13.73
2023-12-14T00:18:47.313Z,15.33
2023-12-14T00:21:15.928Z,15.90
2023-12-14T00:23:44.472Z,15.50
2023-12-14T00:26:14.445Z,13.80
2023-12-14T00:28:43.031Z,15.17
2023-12-14T00:31:11.784Z,12.73
2023-12-14T00:33:40.418Z,12.80
2023-12-14T00:36:09.277Z,12.40
2023-12-14T00:38:37.837Z,13.90
2023-12-14T00:41:06.494Z,13.53
2023-12-14T00:43:37.300Z,13.87
2023-12-14T00:46:06.072Z,14.50
2023-12-14T00:48:34.674Z,14.83
2023-12-14T00:51:03.232Z,13.50
2023-12-14T00:53:31.775Z,15.00
2023-12-14T00:56:00.400Z,14.17
2023-12-14T00:58:29.054Z,14.97
2023-12-14T01:00:58.977Z,14.27
2023-12-14T01:03:27.632Z,15.40
2023-12-14T01:05:56.374Z,19.40
2023-12-14T01:08:24.952Z,16.37
2023-12-14T01:10:53.521Z,18.50
2023-12-14T01:13:22.080Z,16.90
2023-12-14T01:15:50.610Z,17.77
2023-12-14T01:18:20.536Z,17.53
2023-12-14T01:20:49.127Z,15.77
2023-12-14T01:23:17.725Z,19.73
2023-12-14T01:25:46.322Z,17.20
2023-12-14T01:28:15.092Z,20.87
2023-12-14T01:30:43.666Z,16.60
2023-12-14T01:33:12.388Z,18.10
2023-12-14T01:35:42.368Z,17.10
2023-12-14T01:38:10.980Z,17.60
2023-12-14T01:40:39.594Z,17.90
2023-12-14T01:43:11.438Z,16.60
2023-12-14T01:45:39.991Z,15.70
2023-12-14T01:48:08.734Z,16.73
2023-12-14T01:50:36.505Z,20.93
2023-12-14T01:53:06.672Z,17.70
2023-12-14T01:55:35.285Z,20.77
2023-12-14T01:58:03.811Z,19.37
2023-12-14T02:00:36.584Z,21.10
2023-12-14T02:03:05.745Z,23.33
2023-12-14T02:05:35.394Z,29.87
2023-12-14T02:08:03.981Z,23.17
2023-12-14T02:10:33.928Z,21.43
2023-12-14T02:13:03.830Z,21.50
2023-12-14T02:15:32.388Z,25.57
2023-12-14T02:18:01.092Z,24.90
2023-12-14T02:20:29.731Z,20.93
2023-12-14T02:22:59.833Z,24.43
2023-12-14T02:25:28.400Z,25.33
2023-12-14T02:27:57.221Z,25.23
2023-12-14T02:30:25.806Z,30.07
2023-12-14T02:32:54.374Z,25.90
2023-12-14T02:35:23.726Z,28.60
2023-12-14T02:37:52.412Z,29.90
2023-12-14T02:40:22.420Z,24.87
2023-12-14T02:42:50.932Z,25.43
2023-12-14T02:45:19.511Z,25.03
2023-12-14T02:47:49.456Z,22.93
2023-12-14T02:50:18.112Z,25.37
2023-12-14T02:52:46.648Z,23.53
2023-12-14T02:55:15.226Z,26.30
2023-12-14T02:57:45.774Z,25.87
2023-12-14T03:00:14.946Z,20.60
2023-12-14T03:02:43.463Z,17.93
2023-12-14T03:05:11.980Z,17.20
2023-12-14T03:07:40.546Z,18.30
2023-12-14T03:10:09.901Z,14.40
2023-12-14T03:12:38.867Z,18.20
2023-12-14T03:15:09.583Z,17.83
2023-12-14T03:17:38.260Z,17.30
2023-12-14T03:20:07.373Z,15.13
2023-12-14T03:22:36.207Z,14.60
2023-12-14T03:25:04.947Z,15.67
2023-12-14T03:27:33.463Z,16.23
2023-12-14T03:30:02.054Z,16.67
2023-12-14T03:32:32.012Z,12.97
2023-12-14T03:35:00.612Z,10.80
2023-12-14T03:37:29.168Z,11.23
2023-12-14T03:39:57.684Z,11.83
2023-12-14T03:42:26.193Z,11.70
2023-12-14T03:44:54.710Z,12.33
2023-12-14T03:47:23.425Z,13.97
2023-12-14T03:49:53.327Z,11.33
2023-12-14T03:52:21.901Z,11.80
2023-12-14T03:54:50.417Z,10.90
2023-12-14T03:57:18.938Z,9.30
2023-12-14T03:59:47.453Z,11.63
2023-12-14T04:02:16.008Z,12.37
2023-12-14T04:04:44.600Z,11.73
2023-12-14T04:07:14.562Z,10.50
2023-12-14T04:09:43.100Z,12.27
2023-12-14T04:12:11.621Z,11.23
2023-12-14T04:14:40.166Z,10.27
2023-12-14T04:17:08.832Z,10.20
2023-12-14T04:19:37.508Z,11.53
2023-12-14T04:22:06.209Z,10.33
2023-12-14T04:24:36.618Z,10.90
2023-12-14T04:27:05.202Z,8.67
2023-12-14T04:29:33.712Z,11.33
2023-12-14T04:32:02.230Z,13.00
2023-12-14T04:34:30.766Z,13.83
2023-12-14T04:36:59.295Z,13.37
2023-12-14T04:39:28.021Z,13.43
2023-12-14T04:41:57.883Z,15.93
2023-12-14T04:44:26.445Z,16.50
2023-12-14T04:46:55.015Z,18.73
2023-12-14T04:49:24.299Z,17.33
2023-12-14T04:51:52.902Z,14.00
2023-12-14T04:54:21.527Z,15.87
2023-12-14T04:56:50.044Z,13.90
2023-12-14T04:59:19.893Z,15.30
2023-12-14T05:01:48.430Z,14.40
2023-12-14T05:04:17.124Z,16.40
2023-12-14T05:06:45.633Z,18.37
2023-12-14T05:09:14.144Z,13.50
2023-12-14T05:11:42.769Z,14.93
2023-12-14T05:14:11.594Z,14.67
2023-12-14T05:16:41.525Z,12.77
2023-12-14T05:19:10.104Z,12.30
2023-12-14T05:21:38.761Z,12.10
2023-12-14T05:24:07.784Z,13.07
2023-12-14T05:26:36.454Z,13.27
2023-12-14T05:29:04.999Z,11.17
2023-12-14T05:31:33.653Z,12.77
2023-12-14T05:34:03.677Z,11.17
2023-12-14T05:36:32.429Z,12.17
2023-12-14T05:39:00.937Z,8.87
2023-12-14T05:41:30.846Z,12.03
2023-12-14T05:43:59.664Z,13.03
2023-12-14T05:46:28.230Z,11.73
2023-12-14T05:48:56.791Z,11.33
2023-12-14T05:51:33.471Z,13.47
2023-12-14T05:54:02.420Z,10.80
2023-12-14T05:56:31.374Z,11.73
2023-12-14T05:59:00.299Z,12.80
2023-12-14T06:01:28.883Z,13.80
2023-12-14T06:03:57.507Z,12.63
2023-12-14T06:06:27.213Z,12.73
2023-12-14T06:08:57.241Z,11.90
2023-12-14T06:11:25.873Z,12.10
2023-12-14T06:13:54.490Z,10.97
2023-12-14T06:16:23.054Z,11.37
2023-12-14T06:18:51.651Z,13.03
2023-12-14T06:21:20.216Z,12.03
2023-12-14T06:23:51.918Z,11.20
2023-12-14T06:26:22.578Z,11.33
2023-12-14T06:28:51.256Z,11.90
2023-12-14T06:31:22.436Z,11.17
2023-12-14T06:33:51.138Z,10.50
2023-12-14T06:36:19.868Z,11.03
2023-12-14T06:38:48.407Z,10.57
2023-12-14T06:41:24.881Z,9.63
2023-12-14T06:43:54.041Z,11.33
2023-12-14T06:46:22.603Z,7.87
2023-12-14T06:48:51.969Z,10.47
2023-12-14T06:51:20.579Z,11.70
2023-12-14T06:53:49.305Z,11.93
2023-12-14T06:56:17.962Z,11.13
2023-12-14T06:58:50.352Z,12.00
2023-12-14T07:01:19.610Z,11.43
2023-12-14T07:03:49.092Z,10.73
2023-12-14T07:06:18.091Z,11.93
2023-12-14T07:08:46.848Z,10.67
2023-12-14T07:11:15.465Z,11.03
2023-12-14T07:13:44.105Z,10.67
2023-12-14T07:16:13.993Z,9.20
2023-12-14T07:18:43.433Z,10.10
2023-12-14T07:21:12.051Z,11.07
2023-12-14T07:23:40.602Z,7.10
2023-12-14T07:26:09.300Z,9.10
2023-12-14T07:28:38.187Z,8.57
2023-12-14T07:31:06.906Z,8.20
2023-12-14T07:33:37.315Z,7.93
2023-12-14T07:36:06.653Z,7.70
2023-12-14T07:38:35.196Z,8.23
2023-12-14T07:41:04.304Z,5.43
2023-12-14T07:43:32.945Z,7.00
2023-12-14T07:46:01.451Z,7.03
2023-12-14T07:48:30.711Z,7.53
2023-12-14T07:51:00.620Z,8.67
2023-12-14T07:53:29.163Z,9.03
2023-12-14T07:55:59.380Z,7.33
2023-12-14T07:58:28.035Z,7.93
2023-12-14T08:00:56.585Z,8.57
2023-12-14T08:03:25.197Z,8.77
2023-12-14T08:05:53.775Z,7.87
2023-12-14T08:08:23.650Z,8.57
2023-12-14T08:10:52.237Z,7.87
2023-12-14T08:13:20.796Z,7.83
2023-12-14T08:15:53.705Z,10.35
2023-12-14T08:18:22.317Z,16.27
2023-12-14T08:20:56.134Z,14.87
2023-12-14T08:23:28.463Z,12.93
2023-12-14T08:25:58.072Z,14.73
2023-12-14T08:28:26.696Z,12.93
2023-12-14T08:30:55.238Z,10.93
2023-12-14T08:33:24.841Z,9.20
2023-12-14T08:35:53.453Z,11.70
2023-12-14T08:38:22.037Z,9.57
2023-12-14T08:40:52.077Z,10.50
2023-12-14T08:43:20.587Z,10.23
2023-12-14T08:45:49.666Z,11.30
2023-12-14T08:48:18.337Z,8.60
2023-12-14T08:50:47.022Z,9.73
2023-12-14T08:53:15.874Z,12.33
2023-12-14T08:55:44.464Z,9.00
2023-12-14T08:58:14.363Z,10.20
2023-12-14T09:00:42.935Z,10.17
2023-12-14T09:03:11.557Z,9.00
2023-12-14T09:05:43.929Z,8.60
2023-12-14T09:08:12.653Z,10.27
2023-12-14T09:10:41.222Z,9.50
2023-12-14T09:13:09.996Z,9.87
2023-12-14T09:15:39.861Z,11.10
2023-12-14T09:18:08.593Z,10.73
2023-12-14T09:20:38.507Z,8.93
2023-12-14T09:23:07.226Z,8.57
2023-12-14T09:25:35.823Z,7.13
2023-12-14T09:28:04.402Z,10.80
2023-12-14T09:30:33.044Z,8.10
2023-12-14T09:33:03.259Z,8.27
2023-12-14T09:35:31.948Z,9.00
2023-12-14T09:38:00.488Z,8.10
2023-12-14T09:40:29.117Z,7.17
2023-12-14T09:42:58.307Z,10.53
2023-12-14T09:45:30.003Z,9.50
2023-12-14T09:47:59.662Z,9.77
2023-12-14T09:50:29.805Z,10.90
2023-12-14T09:52:58.364Z,11.73
2023-12-14T09:55:26.954Z,9.93
2023-12-14T09:57:55.794Z,8.80
2023-12-14T10:00:35.107Z,10.10
2023-12-14T10:03:20.279Z,10.47
2023-12-14T10:05:50.695Z,10.13
2023-12-14T10:08:19.765Z,8.47
2023-12-14T10:10:50.028Z,9.17
2023-12-14T10:13:18.848Z,8.97
2023-12-14T10:15:47.972Z,11.67
2023-12-14T10:18:20.522Z,10.33
2023-12-14T10:20:50.803Z,8.63
2023-12-14T10:23:19.969Z,8.83
2023-12-14T10:25:48.885Z,8.73
2023-12-14T10:28:17.594Z,11.17
2023-12-14T10:30:46.149Z,9.60
2023-12-14T10:33:15.612Z,9.17
2023-12-14T10:35:47.041Z,9.60
2023-12-14T10:38:18.346Z,10.93
2023-12-14T10:40:48.020Z,8.63
2023-12-14T10:43:42.532Z,9.53
2023-12-14T10:46:08.903Z,10.10
2023-12-14T10:48:38.216Z,8.93
2023-12-14T10:51:07.417Z,9.17
2023-12-14T10:53:38.171Z,8.83
2023-12-14T10:56:10.725Z,9.93
2023-12-14T10:58:49.126Z,9.93
2023-12-14T11:01:18.617Z,8.17
2023-12-14T11:03:47.610Z,12.07
2023-12-14T11:06:32.318Z,10.23
2023-12-14T11:11:42.855Z,9.47
2023-12-14T11:14:13.224Z,10.97
2023-12-14T11:16:47.317Z,10.43
2023-12-14T11:19:29.775Z,11.20
2023-12-14T11:22:19.410Z,11.03
2023-12-14T11:24:56.118Z,10.97
2023-12-14T11:27:29.408Z,12.23
2023-12-14T11:29:58.799Z,11.27
2023-12-14T11:32:27.978Z,9.37
2023-12-14T11:34:58.076Z,12.40
2023-12-14T11:37:26.621Z,8.33
2023-12-14T11:39:56.502Z,11.27
2023-12-14T11:42:26.443Z,9.40
2023-12-14T11:44:54.944Z,8.57
2023-12-14T11:47:23.589Z,9.57
2023-12-14T11:49:52.171Z,10.00
2023-12-14T11:52:22.789Z,8.73
2023-12-14T11:54:52.001Z,7.83
2023-12-14T11:57:21.831Z,7.87
2023-12-14T11:59:53.344Z,5.60
2023-12-14T12:02:26.845Z,6.73
2023-12-14T12:04:55.617Z,8.03
2023-12-14T12:07:24.206Z,8.77
2023-12-14T12:09:53.277Z,7.73
2023-12-14T12:12:23.753Z,8.93
2023-12-14T12:14:53.861Z,10.10
2023-12-14T12:17:22.708Z,8.43
2023-12-14T12:19:51.387Z,8.33
2023-12-14T12:22:19.913Z,9.20
2023-12-14T12:24:52.975Z,10.03
2023-12-14T12:27:25.348Z,7.93
2023-12-14T12:29:55.412Z,8.23
2023-12-14T12:32:24.024Z,8.50
2023-12-14T12:34:53.703Z,9.33
2023-12-14T12:37:23.303Z,8.07
2023-12-14T12:39:51.824Z,10.63
2023-12-14T12:42:21.468Z,10.27
2023-12-14T12:44:52.349Z,9.53
2023-12-14T12:47:22.073Z,8.90
2023-12-14T12:49:50.730Z,9.90
2023-12-14T12:52:19.307Z,11.43
2023-12-14T12:54:47.836Z,9.77
2023-12-14T12:57:16.385Z,8.67
2023-12-14T12:59:44.968Z,8.93
2023-12-14T13:02:14.933Z,9.50
2023-12-14T13:04:43.482Z,9.17
2023-12-14T13:07:13.093Z,9.30
2023-12-14T13:09:41.599Z,8.73
2023-12-14T13:12:10.954Z,8.77
2023-12-14T13:14:39.492Z,9.63
2023-12-14T13:17:08.148Z,8.70
2023-12-14T13:19:38.006Z,10.23
2023-12-14T13:22:06.543Z,9.63
2023-12-14T13:24:35.078Z,8.10
2023-12-14T13:27:03.569Z,9.37
2023-12-14T13:29:33.582Z,10.53
2023-12-14T13:32:02.391Z,8.57
2023-12-14T13:34:31.028Z,7.53
2023-12-14T13:37:01.766Z,7.00
2023-12-14T13:39:30.543Z,7.53
2023-12-14T13:41:59.046Z,8.30
2023-12-14T13:44:27.612Z,7.17
2023-12-14T13:46:56.156Z,8.13
2023-12-14T13:49:24.740Z,8.67
2023-12-14T13:51:53.370Z,8.10
2023-12-14T13:54:23.249Z,7.37
2023-12-14T13:56:51.817Z,8.20
2023-12-14T13:59:20.545Z,6.83
2023-12-14T14:01:51.387Z,7.97
2023-12-14T14:04:20.076Z,8.73
2023-12-14T14:06:48.798Z,5.83
2023-12-14T14:09:17.360Z,4.73
2023-12-14T14:11:50.112Z,6.60
2023-12-14T14:14:18.975Z,5.53
2023-12-14T14:16:46.627Z,6.43
2023-12-14T14:19:15.304Z,6.70
2023-12-14T14:21:44.074Z,6.33
2023-12-14T14:24:12.576Z,6.07
2023-12-14T14:26:41.130Z,6.27
2023-12-14T14:29:12.330Z,7.97
2023-12-14T14:31:41.316Z,5.77
2023-12-14T14:34:09.912Z,5.50
2023-12-14T14:36:38.442Z,5.83
2023-12-14T14:39:07.162Z,6.03
2023-12-14T14:41:35.678Z,6.50
2023-12-14T14:44:04.379Z,6.63
2023-12-14T14:46:34.327Z,5.40
2023-12-14T14:49:03.547Z,5.07
2023-12-14T14:51:32.385Z,4.87
2023-12-14T14:54:00.912Z,5.73
2023-12-14T14:56:29.463Z,4.83
2023-12-14T14:58:58.387Z,7.43
2023-12-14T15:01:27.211Z,6.77
2023-12-14T15:03:57.314Z,5.67
2023-12-14T15:06:25.922Z,5.97
2023-12-14T15:08:54.525Z,6.00
2023-12-14T15:11:23.136Z,5.97
2023-12-14T15:13:52.216Z,5.13
2023-12-14T15:16:25.571Z,6.03
2023-12-14T15:18:56.420Z,7.20
2023-12-14T15:21:26.365Z,6.00
2023-12-14T15:23:55.040Z,6.53
2023-12-14T15:26:23.678Z,7.90
2023-12-14T15:28:52.340Z,6.00
2023-12-14T15:31:20.894Z,6.57
2023-12-14T15:33:49.536Z,7.40
2023-12-14T15:36:19.176Z,6.27
2023-12-14T15:38:49.025Z,6.27
2023-12-14T15:41:18.017Z,6.37
2023-12-14T15:43:46.721Z,5.70
2023-12-14T15:46:15.253Z,5.53
2023-12-14T15:48:45.138Z,7.40
2023-12-14T15:51:13.681Z,6.70
2023-12-14T15:53:42.171Z,5.57
2023-12-14T15:56:12.339Z,5.17
2023-12-14T15:58:40.910Z,6.67
2023-12-14T16:01:11.420Z,5.93
2023-12-14T16:03:40.137Z,6.17
2023-12-14T16:06:09.772Z,6.67
2023-12-14T16:08:38.466Z,4.83
2023-12-14T16:11:07.158Z,6.37
2023-12-14T16:13:37.044Z,7.07
2023-12-14T16:16:06.115Z,7.77
2023-12-14T16:18:34.721Z,7.77
2023-12-14T16:21:03.436Z,7.03
2023-12-14T16:23:32.724Z,7.50
2023-12-14T16:26:01.321Z,7.97
2023-12-14T16:28:29.917Z,7.97
2023-12-14T16:31:01.373Z,8.97
2023-12-14T16:33:31.375Z,7.23
2023-12-14T16:36:00.031Z,7.87
2023-12-14T16:38:28.620Z,8.83
2023-12-14T16:40:57.213Z,8.67
2023-12-14T16:43:25.768Z,8.03
2023-12-14T16:45:55.086Z,7.87
2023-12-14T16:48:25.174Z,9.13
2023-12-14T16:50:55.247Z,9.00
2023-12-14T16:53:24.505Z,9.43
2023-12-14T16:55:55.480Z,8.80
2023-12-14T16:58:24.045Z,7.57
2023-12-14T17:00:54.473Z,8.80
2023-12-14T17:03:23.397Z,9.23
2023-12-14T17:05:56.555Z,8.60
2023-12-14T17:08:27.951Z,9.73
2023-12-14T17:10:56.903Z,9.00
2023-12-14T17:13:25.971Z,8.77
2023-12-14T17:15:54.516Z,8.77
2023-12-14T17:18:23.113Z,10.33
2023-12-14T17:20:51.680Z,8.70
2023-12-14T17:23:21.575Z,10.40
2023-12-14T17:25:50.171Z,8.93
2023-12-14T17:28:18.957Z,9.80
2023-12-14T17:30:47.535Z,8.47
2023-12-14T17:33:16.778Z,9.97
2023-12-14T17:35:45.399Z,8.40
2023-12-14T17:38:13.947Z,11.10
2023-12-14T17:40:43.938Z,9.40
2023-12-14T17:43:12.452Z,9.97
2023-12-14T17:45:40.971Z,10.33
2023-12-14T17:48:09.623Z,9.97
2023-12-14T17:50:38.149Z,11.50
2023-12-14T17:53:06.760Z,10.53
2023-12-14T17:55:35.345Z,10.17
2023-12-14T17:58:05.276Z,9.40
2023-12-14T18:00:33.803Z,10.10
2023-12-14T18:03:04.937Z,11.13
2023-12-14T18:05:33.774Z,12.47
2023-12-14T18:08:03.085Z,10.70
2023-12-14T18:10:31.707Z,10.53
2023-12-14T18:13:03.669Z,9.90
2023-12-14T18:15:35.892Z,10.20
2023-12-14T18:18:05.291Z,12.97
2023-12-14T18:20:34.015Z,10.97
2023-12-14T18:23:02.670Z,8.33
2023-12-14T18:25:31.225Z,9.87
2023-12-14T18:28:02.829Z,11.53
2023-12-14T18:30:31.450Z,10.50
2023-12-14T18:33:11.671Z,10.81
2023-12-14T18:35:40.349Z,11.70
2023-12-14T18:38:08.928Z,12.00
2023-12-14T18:40:37.510Z,11.97
2023-12-14T18:43:06.097Z,11.73
2023-12-14T18:45:35.158Z,13.30
2023-12-14T18:48:03.881Z,13.03
2023-12-14T18:50:33.919Z,11.27
2023-12-14T18:53:05.204Z,14.17
2023-12-14T18:55:34.172Z,12.20
2023-12-14T18:58:02.741Z,12.80
2023-12-14T19:00:31.284Z,12.83
2023-12-14T19:03:00.416Z,13.90
2023-12-14T19:05:29.814Z,11.77
2023-12-14T19:07:59.761Z,12.33
2023-12-14T19:10:28.264Z,10.93
2023-12-14T19:12:56.849Z,11.20
2023-12-14T19:15:25.355Z,12.43
2023-12-14T19:17:53.878Z,12.17
2023-12-14T19:20:22.482Z,14.70
2023-12-14T19:22:51.373Z,13.67
2023-12-14T19:25:21.449Z,13.97
2023-12-14T19:27:53.920Z,14.57
2023-12-14T19:30:22.668Z,11.67
2023-12-14T19:32:53.212Z,12.50
2023-12-14T19:35:21.983Z,12.00
2023-12-14T19:37:50.776Z,11.10
2023-12-14T19:40:21.552Z,12.77
2023-12-14T19:42:50.221Z,15.50
2023-12-14T19:45:19.066Z,11.33
2023-12-14T19:47:47.642Z,12.53
2023-12-14T19:50:16.337Z,12.10
2023-12-14T19:52:45.047Z,12.07
2023-12-14T19:55:15.202Z,11.63
2023-12-14T19:57:45.048Z,14.07
2023-12-14T20:00:13.932Z,14.53
2023-12-14T20:02:42.447Z,16.27
2023-12-14T20:05:12.136Z,13.00
2023-12-14T20:07:40.792Z,15.17
2023-12-14T20:10:09.966Z,12.50
2023-12-14T20:12:38.764Z,13.00
2023-12-14T20:15:10.050Z,11.00
2023-12-14T20:17:38.899Z,13.43
2023-12-14T20:20:08.772Z,12.80
2023-12-14T20:22:37.305Z,12.73
2023-12-14T20:25:06.144Z,12.40
2023-12-14T20:27:35.093Z,14.37
2023-12-14T20:30:05.299Z,11.97
2023-12-14T20:32:35.413Z,13.27
2023-12-14T20:35:04.412Z,11.73
2023-12-14T20:37:34.796Z,11.40
2023-12-14T20:40:12.592Z,13.67
2023-12-14T20:42:41.093Z,12.37
2023-12-14T20:45:10.163Z,12.17
2023-12-14T20:47:40.431Z,14.47
2023-12-14T20:50:09.840Z,15.83
2023-12-14T20:52:42.539Z,13.80
2023-12-14T20:55:11.128Z,12.63
2023-12-14T20:57:39.924Z,13.77
2023-12-14T21:00:09.989Z,12.20
2023-12-14T21:02:40.980Z,12.87
2023-12-14T21:05:09.912Z,14.50
2023-12-14T21:07:38.757Z,11.97
2023-12-14T21:10:07.725Z,14.23
2023-12-14T21:12:36.243Z,13.23
2023-12-14T21:15:04.887Z,12.80
2023-12-14T21:17:33.745Z,14.13
2023-12-14T21:20:04.236Z,16.30
2023-12-14T21:22:32.929Z,13.53
2023-12-14T21:25:02.696Z,14.70
2023-12-14T21:27:45.797Z,15.17
2023-12-14T21:30:15.843Z,13.07
2023-12-14T21:32:44.957Z,12.47
2023-12-14T21:35:15.163Z,13.77
2023-12-14T21:37:43.827Z,12.07
2023-12-14T21:40:12.720Z,13.33
2023-12-14T21:42:41.325Z,11.47
2023-12-14T21:45:11.805Z,17.80
2023-12-14T21:47:40.847Z,10.53
2023-12-14T21:50:10.147Z,11.40
2023-12-14T21:52:40.878Z,10.97
2023-12-14T21:55:09.837Z,12.43
2023-12-14T21:57:38.562Z,11.17
2023-12-14T22:00:08.644Z,13.23
2023-12-14T22:02:37.238Z,13.37
2023-12-14T22:05:06.124Z,17.00
2023-12-14T22:07:35.376Z,13.03
2023-12-14T22:10:05.531Z,12.80
2023-12-14T22:12:34.414Z,14.57
2023-12-14T22:15:03.101Z,11.33
2023-12-14T22:17:31.720Z,12.70
2023-12-14T22:20:00.428Z,11.20
2023-12-14T22:22:29.043Z,12.07
2023-12-14T22:24:57.554Z,12.73
2023-12-14T22:27:27.651Z,10.93
2023-12-14T22:29:56.160Z,13.27
2023-12-14T22:32:24.850Z,13.77
2023-12-14T22:34:53.465Z,12.00
2023-12-14T22:37:21.981Z,12.97
2023-12-14T22:39:50.474Z,11.53
2023-12-14T22:42:19.771Z,12.03
2023-12-14T22:44:49.669Z,10.93
2023-12-14T22:47:18.509Z,11.87
2023-12-14T22:49:47.049Z,10.87
2023-12-14T22:52:15.585Z,11.30
2023-12-14T22:54:44.108Z,10.10
2023-12-14T22:57:12.765Z,12.87
2023-12-14T22:59:41.296Z,11.33
2023-12-14T23:02:11.228Z,12.77
2023-12-14T23:04:40.363Z,9.97
2023-12-14T23:07:08.883Z,11.93
2023-12-14T23:09:37.399Z,11.27
2023-12-14T23:12:06.145Z,10.07
2023-12-14T23:14:34.806Z,11.17
2023-12-14T23:17:03.468Z,11.93
2023-12-14T23:19:33.403Z,13.00
2023-12-14T23:22:01.911Z,11.70
2023-12-14T23:24:30.426Z,12.67
2023-12-14T23:26:59.008Z,10.00
2023-12-14T23:29:27.545Z,13.90
2023-12-14T23:31:56.632Z,14.70
2023-12-14T23:34:25.260Z,14.17
2023-12-14T23:36:55.103Z,12.00
2023-12-14T23:39:23.622Z,12.43
2023-12-14T23:41:52.143Z,12.67
2023-12-14T23:44:20.697Z,13.27
2023-12-14T23:46:49.293Z,13.67
2023-12-14T23:49:17.880Z,15.13
2023-12-14T23:51:46.453Z,16.20
2023-12-14T23:54:16.781Z,15.17
2023-12-14T23:56:45.278Z,14.67
2023-12-14T23:59:13.847Z,14.50
